Time;durP1;ratioP1;P1;durP2;ratioP2;P2;SDS_P1;SDS_P2;PMS_P1;PMS_P2;Temp;Humidity;BMP_temperature;BMP_pressure;BME280_temperature;BME280_humidity;BME280_pressure;Samples;Min_cycle;Max_cycle;Signal;HPM_P1;HPM_P2
2022/07/20 00:53:05;;;;;;;11.55;5.35;;;18.00;99.90;;;;;;5981464;23;22924;-78
2022/07/20 00:55:31;;;;;;;9.57;5.18;;;18.10;99.90;;;;;;5031039;28;20029;-79
2022/07/20 00:57:57;;;;;;;9.55;4.57;;;18.20;99.90;;;;;;5030762;28;20025;-78
2022/07/20 01:00:23;;;;;;;9.82;5.35;;;18.20;99.90;;;;;;5030893;28;20026;-79
2022/07/20 01:02:49;;;;;;;9.32;4.32;;;18.30;99.90;;;;;;5030829;28;20036;-78
2022/07/20 01:05:15;;;;;;;10.30;4.40;;;18.30;99.90;;;;;;5016914;28;20022;-78
2022/07/20 01:07:45;;;;;;;16.38;4.57;;;18.30;99.90;;;;;;5009580;28;20088;-78
2022/07/20 01:10:12;;;;;;;9.98;4.80;;;18.30;99.90;;;;;;5011946;28;20022;-78
2022/07/20 01:12:42;;;;;;;10.05;4.72;;;18.30;99.90;;;;;;5012245;28;20451;-78
2022/07/20 01:15:08;;;;;;;12.82;4.82;;;18.30;99.90;;;;;;5012219;28;20033;-78
2022/07/20 01:17:34;;;;;;;9.73;4.75;;;18.30;99.90;;;;;;5012205;28;20022;-77
2022/07/20 01:20:00;;;;;;;15.60;4.75;;;18.40;99.90;;;;;;5012341;28;20026;-77
2022/07/20 01:22:26;;;;;;;15.88;6.05;;;18.40;99.90;;;;;;5011820;28;20061;-78
2022/07/20 01:24:52;;;;;;;16.05;5.10;;;18.30;99.90;;;;;;5014675;28;20017;-79
2022/07/20 01:27:17;;;;;;;12.25;5.68;;;18.40;99.90;;;;;;5012029;28;20401;-77
2022/07/20 01:29:43;;;;;;;17.58;6.00;;;18.30;99.90;;;;;;5012281;28;20025;-78
2022/07/20 01:32:09;;;;;;;13.32;5.38;;;18.30;99.90;;;;;;5012053;28;20112;-78
2022/07/20 01:34:34;;;;;;;17.10;5.95;;;18.30;99.90;;;;;;5009743;28;20038;-77
2022/07/20 01:37:00;;;;;;;13.07;5.25;;;18.30;99.90;;;;;;5011781;28;20394;-78
2022/07/20 01:39:26;;;;;;;14.52;5.15;;;18.40;99.90;;;;;;5018738;28;20022;-78
2022/07/20 01:41:54;;;;;;;19.00;7.13;;;18.50;99.90;;;;;;5012025;28;21257;-79
2022/07/20 01:44:21;;;;;;;13.25;6.07;;;18.50;99.90;;;;;;5011820;28;20085;-78
2022/07/20 01:46:51;;;;;;;11.60;6.03;;;18.60;99.90;;;;;;5011208;28;20458;-78
2022/07/20 01:49:18;;;;;;;12.40;6.47;;;18.60;99.90;;;;;;5011486;28;20029;-78
2022/07/20 01:51:44;;;;;;;21.23;6.85;;;18.60;99.90;;;;;;5011550;28;20028;-78
2022/07/20 01:54:10;;;;;;;15.23;6.60;;;18.60;99.90;;;;;;5024389;23;20073;-77
2022/07/20 01:56:36;;;;;;;18.55;6.43;;;18.60;99.90;;;;;;5010726;28;20053;-76
2022/07/20 01:59:02;;;;;;;16.20;6.95;;;18.60;99.90;;;;;;5008911;28;20088;-76
2022/07/20 02:01:28;;;;;;;14.80;7.53;;;18.60;99.90;;;;;;5010827;28;20478;-75
2022/07/20 02:03:54;;;;;;;16.88;8.02;;;18.60;99.90;;;;;;5006415;28;20067;-77
2022/07/20 02:06:19;;;;;;;16.90;6.38;;;18.60;99.90;;;;;;4992229;28;20041;-76
2022/07/20 02:08:45;;;;;;;18.17;6.68;;;18.60;99.90;;;;;;4991935;28;20038;-75
2022/07/20 02:11:11;;;;;;;11.80;6.57;;;18.60;99.90;;;;;;4991885;28;20023;-75
2022/07/20 02:13:37;;;;;;;13.90;7.22;;;18.60;99.90;;;;;;4992093;28;20026;-75
2022/07/20 02:16:16;;;;;;;17.15;7.10;;;18.60;99.90;;;;;;4991882;28;20022;-76
2022/07/20 02:18:48;;;;;;;18.20;7.07;;;18.60;99.90;;;;;;4991657;28;20109;-76
2022/07/20 02:21:16;;;;;;;18.52;7.18;;;18.60;99.90;;;;;;4991705;28;20056;-75
2022/07/20 02:23:43;;;;;;;17.05;7.68;;;18.60;99.90;;;;;;4991751;28;20509;-75
2022/07/20 02:26:09;;;;;;;12.20;7.22;;;18.50;99.90;;;;;;4991791;28;20105;-75
2022/07/20 02:28:35;;;;;;;20.42;7.60;;;18.50;99.90;;;;;;4991688;28;20125;-75
2022/07/20 02:31:02;;;;;;;13.88;6.85;;;18.50;99.90;;;;;;4991983;28;20467;-77
2022/07/20 02:33:28;;;;;;;17.05;7.38;;;18.50;99.90;;;;;;4991726;28;20114;-77
2022/07/20 02:35:54;;;;;;;15.82;6.70;;;18.50;99.90;;;;;;4991565;28;20101;-77
2022/07/20 02:38:19;;;;;;;16.45;6.88;;;18.50;99.90;;;;;;4974087;28;20029;-77
2022/07/20 02:40:45;;;;;;;12.85;6.82;;;18.50;99.90;;;;;;4991058;28;20026;-77
2022/07/20 02:43:11;;;;;;;20.52;8.57;;;18.50;99.90;;;;;;4991572;28;20023;-74
2022/07/20 02:45:37;;;;;;;12.32;6.65;;;18.50;99.90;;;;;;4976646;28;20534;-75
2022/07/20 02:48:03;;;;;;;17.52;7.15;;;18.50;99.90;;;;;;4995074;28;20037;-74
2022/07/20 02:50:30;;;;;;;17.38;7.32;;;18.60;99.90;;;;;;4995261;28;20077;-74
2022/07/20 02:55:26;;;;;;;14.80;7.32;;;18.60;99.90;;;;;;5034759;28;20045;-76
2022/07/20 02:57:52;;;;;;;16.17;6.75;;;18.70;99.90;;;;;;5015943;28;20116;-77
2022/07/20 03:00:19;;;;;;;12.00;6.25;;;18.70;99.90;;;;;;5033519;28;20100;-77
2022/07/20 03:02:44;;;;;;;18.55;6.30;;;18.70;99.90;;;;;;5033533;28;20076;-76
2022/07/20 03:05:10;;;;;;;15.30;7.18;;;18.80;99.90;;;;;;5040523;28;20041;-76
2022/07/20 03:07:36;;;;;;;12.18;6.68;;;18.80;99.90;;;;;;5026614;28;20025;-78
2022/07/20 03:10:03;;;;;;;17.70;8.20;;;18.80;99.90;;;;;;5042884;28;20021;-77
2022/07/20 03:12:29;;;;;;;15.10;6.70;;;18.80;99.90;;;;;;5039724;28;20035;-79
2022/07/20 03:14:55;;;;;;;17.15;6.88;;;18.80;99.90;;;;;;5039668;28;20013;-78
2022/07/20 03:17:20;;;;;;;16.60;7.57;;;18.80;99.90;;;;;;5042247;28;20152;-77
2022/07/20 03:19:46;;;;;;;13.60;7.53;;;18.70;99.90;;;;;;5044563;28;20028;-78
2022/07/20 03:22:12;;;;;;;17.50;7.05;;;18.70;99.90;;;;;;5040172;28;20022;-77
2022/07/20 03:24:38;;;;;;;18.88;8.05;;;18.70;99.90;;;;;;5046855;28;21596;-77
2022/07/20 03:27:04;;;;;;;21.90;8.02;;;18.70;99.90;;;;;;5040106;28;20079;-78
2022/07/20 03:29:30;;;;;;;17.58;7.15;;;18.80;99.90;;;;;;5040032;28;20024;-77
2022/07/20 03:31:56;;;;;;;15.18;7.55;;;18.80;99.90;;;;;;5041995;28;20382;-78
2022/07/20 03:34:22;;;;;;;17.17;7.72;;;18.80;99.90;;;;;;5043985;28;20075;-77
2022/07/20 03:36:50;;;;;;;13.80;7.18;;;18.80;99.90;;;;;;5039950;28;20021;-78
2022/07/20 03:39:16;;;;;;;14.60;7.72;;;18.80;99.90;;;;;;5042833;28;20021;-78
2022/07/20 03:41:42;;;;;;;18.60;6.30;;;18.80;99.90;;;;;;5043685;28;20057;-78
2022/07/20 03:44:08;;;;;;;20.25;6.97;;;18.80;99.90;;;;;;5039146;28;20045;-78
2022/07/20 03:46:34;;;;;;;16.38;7.70;;;18.80;99.90;;;;;;5042628;28;20079;-78
2022/07/20 03:49:00;;;;;;;16.63;7.30;;;18.80;99.90;;;;;;5043474;28;20032;-78
2022/07/20 03:51:25;;;;;;;16.50;7.75;;;18.80;99.90;;;;;;5039775;28;20017;-79
2022/07/20 03:53:51;;;;;;;20.25;7.43;;;18.70;99.90;;;;;;5044917;28;20068;-79
2022/07/20 03:56:17;;;;;;;15.88;9.32;;;18.70;99.90;;;;;;5042992;28;20070;-78
2022/07/20 03:58:43;;;;;;;16.05;7.40;;;18.70;99.90;;;;;;5039556;28;20033;-77
2022/07/20 04:01:09;;;;;;;14.55;7.70;;;18.70;99.90;;;;;;5042628;28;20017;-79
2022/07/20 04:03:34;;;;;;;17.88;8.05;;;18.60;99.90;;;;;;5024475;28;20603;-79
2022/07/20 04:06:01;;;;;;;14.32;7.97;;;18.50;99.90;;;;;;5038911;28;20096;-79
2022/07/20 04:08:27;;;;;;;16.73;8.90;;;18.50;99.90;;;;;;5042341;28;20094;-79
2022/07/20 04:10:53;;;;;;;15.75;7.68;;;18.50;99.90;;;;;;5041962;28;20110;-79
2022/07/20 04:13:18;;;;;;;16.25;7.43;;;18.50;99.90;;;;;;5039224;28;20037;-78
2022/07/20 04:15:44;;;;;;;19.30;8.00;;;18.50;99.90;;;;;;5043059;28;20021;-79
2022/07/20 04:18:10;;;;;;;17.55;7.38;;;18.40;99.90;;;;;;5042067;28;20509;-79
2022/07/20 04:20:36;;;;;;;14.65;7.88;;;18.50;99.90;;;;;;5038965;28;20096;-80
2022/07/20 04:23:02;;;;;;;12.57;6.53;;;18.40;99.90;;;;;;5042224;28;20013;-79
2022/07/20 04:25:27;;;;;;;12.18;6.57;;;18.40;99.90;;;;;;5041845;28;20022;-79
2022/07/20 04:27:53;;;;;;;17.35;6.55;;;18.30;99.90;;;;;;5043819;28;20132;-80
2022/07/20 04:30:19;;;;;;;23.92;7.38;;;18.30;99.90;;;;;;5039202;28;20565;-82
2022/07/20 04:32:46;;;;;;;15.63;7.05;;;18.30;99.90;;;;;;5040312;28;20084;-81
2022/07/20 04:35:12;;;;;;;15.80;7.32;;;18.30;99.90;;;;;;5043534;28;20016;-78
2022/07/20 04:37:38;;;;;;;18.35;6.90;;;18.30;99.90;;;;;;5038577;28;20410;-78
2022/07/20 04:40:05;;;;;;;17.45;7.88;;;18.30;99.90;;;;;;5040047;28;20022;-78
2022/07/20 04:42:31;;;;;;;16.15;6.72;;;18.30;99.90;;;;;;5043284;28;20029;-79
2022/07/20 04:44:57;;;;;;;17.45;7.78;;;18.30;99.90;;;;;;5018642;28;20461;-80
2022/07/20 04:47:22;;;;;;;17.73;7.72;;;18.30;99.90;;;;;;5040451;28;20056;-78
2022/07/20 04:49:48;;;;;;;15.60;7.80;;;18.40;99.90;;;;;;5038484;28;20056;-79
2022/07/20 04:52:14;;;;;;;19.23;7.90;;;18.30;99.90;;;;;;5043419;28;20025;-79
2022/07/20 05:53:35;;;;;;;19.88;5.55;;;19.10;99.90;;;;;;5811460;23;20074;-77
2022/07/20 05:56:01;;;;;;;18.60;5.28;;;19.20;99.90;;;;;;4970831;28;20027;-76
2022/07/20 05:58:26;;;;;;;11.35;5.00;;;19.20;99.90;;;;;;4971640;28;20459;-78
2022/07/20 06:00:52;;;;;;;15.30;4.50;;;19.20;99.90;;;;;;4971546;28;20031;-77
2022/07/20 06:03:18;;;;;;;12.88;4.28;;;19.30;99.90;;;;;;4971416;28;20022;-77
2022/07/20 06:05:44;;;;;;;12.95;4.28;;;19.30;99.90;;;;;;4971245;28;20030;-77
2022/07/20 06:08:10;;;;;;;13.38;3.92;;;19.40;99.90;;;;;;4971548;28;20026;-78
2022/07/20 06:10:36;;;;;;;14.73;4.03;;;19.50;99.90;;;;;;4971602;28;20030;-76
2022/07/20 06:13:04;;;;;;;8.90;4.13;;;19.50;99.90;;;;;;4971613;28;20037;-76
2022/07/20 06:15:30;;;;;;;8.38;3.92;;;19.60;99.90;;;;;;4973702;28;20037;-76
2022/07/20 06:17:56;;;;;;;14.30;4.10;;;19.80;99.90;;;;;;4978349;28;20031;-76
2022/07/20 06:20:22;;;;;;;8.40;3.78;;;19.80;99.90;;;;;;4971433;28;20096;-74
2022/07/20 06:22:48;;;;;;;10.55;3.95;;;19.80;99.90;;;;;;4976670;28;20490;-74
2022/07/20 06:25:16;;;;;;;8.73;3.42;;;19.60;99.90;;;;;;4987397;28;20105;-76
2022/07/20 06:27:42;;;;;;;15.27;4.72;;;19.70;99.90;;;;;;4978914;28;20027;-77
2022/07/20 06:30:09;;;;;;;11.50;3.47;;;19.80;99.90;;;;;;4974069;28;20034;-76
2022/07/20 06:32:35;;;;;;;11.60;4.03;;;20.00;99.90;;;;;;4974217;28;20109;-76
2022/07/20 06:35:01;;;;;;;12.13;4.63;;;20.10;99.90;;;;;;4974389;28;20019;-79
2022/07/20 06:37:27;;;;;;;12.55;3.75;;;20.20;99.90;;;;;;4974094;28;20413;-76
2022/07/20 06:39:53;;;;;;;13.27;3.00;;;20.20;99.90;;;;;;4974075;28;20404;-76
2022/07/20 06:42:20;;;;;;;12.48;2.88;;;20.20;99.90;;;;;;4974378;28;20031;-76
2022/07/20 06:44:46;;;;;;;8.70;3.22;;;20.20;99.90;;;;;;4973943;28;20763;-75
2022/07/20 06:47:13;;;;;;;16.10;3.47;;;20.30;99.90;;;;;;4972688;28;20046;-75
2022/07/20 06:49:39;;;;;;;9.35;3.50;;;20.30;99.90;;;;;;4974918;28;20102;-76
2022/07/20 06:52:05;;;;;;;6.47;2.85;;;20.20;99.90;;;;;;4974278;28;20162;-75
2022/07/20 07:53:29;;;;;;;5.57;1.70;;;21.10;99.90;;;;;;5960957;23;20033;-76
2022/07/20 07:55:55;;;;;;;6.60;1.63;;;21.30;99.90;;;;;;4954921;28;20519;-75
2022/07/20 07:58:21;;;;;;;5.47;1.98;;;21.50;99.90;;;;;;4954696;28;20031;-75
2022/07/20 08:00:46;;;;;;;6.13;2.13;;;21.60;99.90;;;;;;4954877;28;20019;-77
2022/07/20 08:03:12;;;;;;;5.75;1.60;;;21.70;99.90;;;;;;4954575;28;20027;-78
2022/07/20 08:05:38;;;;;;;5.85;2.45;;;21.70;99.90;;;;;;4953726;28;20055;-78
2022/07/20 08:08:15;;;;;;;7.57;2.10;;;21.60;99.90;;;;;;4954680;28;20118;-77
2022/07/20 08:10:42;;;;;;;5.47;1.80;;;21.50;99.90;;;;;;4954316;28;20158;-77
2022/07/20 08:13:08;;;;;;;3.78;1.90;;;21.50;99.90;;;;;;4954922;28;20034;-77
2022/07/20 08:15:34;;;;;;;7.45;1.60;;;21.50;99.90;;;;;;4954840;28;20023;-75
2022/07/20 08:18:00;;;;;;;8.50;1.95;;;21.50;99.90;;;;;;4954599;28;20477;-75
2022/07/20 08:20:26;;;;;;;12.23;2.35;;;21.60;99.90;;;;;;4960836;28;20019;-75
2022/07/20 08:22:52;;;;;;;8.63;1.67;;;21.80;99.90;;;;;;4953079;28;20027;-76
2022/07/20 08:25:19;;;;;;;7.35;1.80;;;22.10;99.90;;;;;;4953518;28;20023;-75
2022/07/20 08:27:45;;;;;;;9.65;2.33;;;22.10;99.90;;;;;;4947622;28;20019;-78
2022/07/20 08:30:12;;;;;;;6.60;1.90;;;22.50;99.90;;;;;;4954580;28;20019;-77
2022/07/20 08:32:37;;;;;;;9.38;2.40;;;22.60;99.90;;;;;;4954435;28;20027;-75
2022/07/20 08:35:03;;;;;;;5.50;1.88;;;22.50;99.90;;;;;;4954198;28;20026;-75
2022/07/20 08:37:29;;;;;;;4.28;1.80;;;22.60;99.90;;;;;;4954450;28;20615;-76
2022/07/20 08:39:55;;;;;;;5.80;1.55;;;22.90;99.90;;;;;;4954048;28;20031;-76
2022/07/20 08:42:22;;;;;;;6.85;1.75;;;23.20;99.90;;;;;;4953738;28;20019;-75
2022/07/20 08:44:49;;;;;;;3.35;1.65;;;23.30;99.90;;;;;;4954313;28;20484;-75
2022/07/20 08:47:15;;;;;;;5.35;1.65;;;23.40;99.90;;;;;;4954357;28;20531;-76
2022/07/20 08:49:47;;;;;;;6.65;1.42;;;24.10;99.90;;;;;;4954262;28;20031;-75
2022/07/20 08:52:15;;;;;;;6.88;2.30;;;25.00;98.40;;;;;;4953836;28;20027;-76
2022/07/20 09:24:18;;;;;;;3.80;0.88;;;28.60;57.70;;;;;;5078456;27;20429;-81
2022/07/20 09:26:44;;;;;;;4.07;0.73;;;30.30;52.90;;;;;;5048625;28;20017;-79
2022/07/20 09:29:09;;;;;;;4.32;0.70;;;29.60;52.40;;;;;;5047824;28;20033;-81
2022/07/20 09:31:38;;;;;;;3.58;1.08;;;29.30;53.20;;;;;;5048034;28;20029;-81
2022/07/20 09:34:08;;;;;;;3.42;1.30;;;29.00;53.50;;;;;;5047807;28;20013;-80
2022/07/20 09:36:37;;;;;;;1.88;0.88;;;29.00;55.90;;;;;;5047799;28;20029;-79
2022/07/20 09:39:22;;;;;;;5.00;1.10;;;29.20;53.20;;;;;;5047283;28;20040;-81
2022/07/20 09:41:54;;;;;;;4.68;1.15;;;29.60;52.80;;;;;;5047647;28;20013;-80
2022/07/20 09:44:22;;;;;;;4.15;1.20;;;29.30;52.00;;;;;;5047402;28;20017;-81
2022/07/20 09:46:48;;;;;;;1.88;0.93;;;28.60;54.30;;;;;;5046173;28;20021;-81
2022/07/20 09:49:14;;;;;;;4.45;1.30;;;28.20;56.50;;;;;;5047421;28;20029;-79
2022/07/20 09:51:42;;;;;;;6.47;1.55;;;27.70;56.60;;;;;;5046072;28;20030;-80
2022/07/20 09:54:13;;;;;;;4.57;1.13;;;27.60;58.80;;;;;;5049309;28;20013;-80
2022/07/20 09:56:42;;;;;;;3.20;1.02;;;28.10;58.80;;;;;;5048654;28;20482;-82
2022/07/20 09:59:11;;;;;;;4.43;1.58;;;29.00;56.40;;;;;;5047091;28;20029;-80
2022/07/20 10:01:42;;;;;;;3.22;1.30;;;29.90;52.60;;;;;;5047485;28;20075;-82
2022/07/20 10:04:10;;;;;;;4.93;1.10;;;30.20;51.50;;;;;;5047180;28;20482;-82
2022/07/20 10:06:38;;;;;;;1.60;0.80;;;30.90;50.50;;;;;;5047240;28;20079;-81
2022/07/20 10:09:06;;;;;;;5.20;1.00;;;30.60;49.50;;;;;;5047116;28;20064;-78
2022/07/20 10:11:32;;;;;;;6.10;1.08;;;30.50;50.30;;;;;;5047162;28;20379;-82
2022/07/20 10:14:01;;;;;;;5.35;1.00;;;31.00;50.60;;;;;;5047032;28;20090;-81
2022/07/20 10:16:53;;;;;;;4.63;0.98;;;31.60;50.10;;;;;;5046688;28;20167;-82
2022/07/20 10:19:21;;;;;;;3.20;0.80;;;31.80;48.20;;;;;;5046584;28;20028;-82
2022/07/20 10:21:49;;;;;;;4.25;1.20;;;31.30;46.80;;;;;;5046755;28;20021;-81
2022/07/20 10:24:31;;;;;;;5.82;1.13;;;31.70;47.70;;;;;;5037385;28;20021;-82
2022/07/20 10:27:24;;;;;;;3.67;1.30;;;32.70;47.00;;;;;;5032213;28;20021;-81
2022/07/20 10:29:52;;;;;;;3.83;1.02;;;33.90;42.70;;;;;;5028127;28;20029;-82
2022/07/20 10:32:24;;;;;;;4.72;0.85;;;34.20;42.10;;;;;;5033275;28;20147;-83
2022/07/20 10:35:01;;;;;;;2.45;0.93;;;34.10;42.30;;;;;;5032082;28;20013;-81
2022/07/20 10:37:30;;;;;;;4.78;1.20;;;33.80;41.00;;;;;;5033319;28;20026;-81
2022/07/20 10:40:13;;;;;;;5.10;0.95;;;33.80;41.40;;;;;;5032746;28;20072;-82
2022/07/20 10:42:46;;;;;;;5.72;1.10;;;33.60;42.60;;;;;;5033187;28;20474;-83
2022/07/20 10:45:22;;;;;;;3.60;1.25;;;33.70;42.70;;;;;;5027221;28;20022;-84
2022/07/20 10:47:51;;;;;;;3.65;0.77;;;33.50;42.10;;;;;;5025093;28;20018;-83
2022/07/20 10:50:18;;;;;;;4.07;0.95;;;33.90;42.50;;;;;;5033250;28;20421;-82
2022/07/20 10:52:46;;;;;;;2.72;0.90;;;34.30;39.80;;;;;;5031223;28;20083;-81
2022/07/20 10:55:37;;;;;;;4.50;0.85;;;34.10;40.00;;;;;;5033400;28;20041;-83
2022/07/20 10:58:07;;;;;;;3.88;1.10;;;34.70;41.20;;;;;;5027739;28;20068;-82
2022/07/20 11:00:39;;;;;;;2.55;0.70;;;34.40;40.00;;;;;;5031896;28;20028;-81
2022/07/20 11:03:15;;;;;;;3.45;1.35;;;34.10;39.80;;;;;;5032761;28;20520;-82
2022/07/20 11:05:42;;;;;;;3.97;0.77;;;34.10;39.80;;;;;;5032723;28;20037;-82
2022/07/20 11:08:09;;;;;;;1.35;0.50;;;33.90;39.00;;;;;;5032962;28;20486;-81
2022/07/20 11:10:37;;;;;;;2.95;0.43;;;32.40;40.30;;;;;;5024238;28;20048;-81
2022/07/20 11:13:21;;;;;;;3.55;1.00;;;32.00;41.40;;;;;;5031241;28;20037;-83
2022/07/20 11:15:49;;;;;;;4.57;1.52;;;32.10;42.50;;;;;;5032781;28;20032;-83
2022/07/20 11:18:21;;;;;;;3.97;0.80;;;32.70;42.60;;;;;;5032652;28;20031;-81
2022/07/20 11:20:54;;;;;;;3.80;0.95;;;33.00;41.60;;;;;;5032785;28;20018;-82
2022/07/20 11:23:25;;;;;;;2.83;0.70;;;32.50;41.60;;;;;;5037663;28;20575;-83
2022/07/20 11:26:01;;;;;;;4.22;1.10;;;32.50;42.70;;;;;;5032394;28;20043;-84
2022/07/20 11:28:31;;;;;;;2.88;0.80;;;33.50;40.40;;;;;;5032408;28;20174;-82
2022/07/20 11:30:58;;;;;;;2.88;0.98;;;33.70;39.80;;;;;;5032184;28;20018;-82
2022/07/20 11:33:24;;;;;;;4.68;1.23;;;34.50;38.20;;;;;;5032396;28;20018;-81
2022/07/20 11:35:50;;;;;;;4.43;0.90;;;33.90;38.70;;;;;;5030994;28;20022;-82
2022/07/20 11:38:16;;;;;;;1.70;1.05;;;33.30;40.70;;;;;;5032119;28;20035;-81
2022/07/20 11:40:54;;;;;;;3.42;0.93;;;33.30;40.30;;;;;;5032111;28;20014;-82
2022/07/20 11:43:20;;;;;;;3.22;0.95;;;33.40;40.20;;;;;;5030940;28;20021;-82
2022/07/20 11:45:46;;;;;;;5.78;0.95;;;34.00;39.70;;;;;;5032158;28;20020;-81
2022/07/20 11:48:24;;;;;;;4.03;0.90;;;34.10;39.00;;;;;;5032232;28;20033;-82
2022/07/20 11:50:50;;;;;;;5.15;0.88;;;33.80;40.00;;;;;;5032027;28;20034;-80
2022/07/20 11:53:22;;;;;;;5.32;1.30;;;33.70;39.70;;;;;;5069231;28;20021;-82
2022/07/20 11:55:48;;;;;;;3.40;1.45;;;34.30;39.30;;;;;;5031190;28;20026;-82
2022/07/20 11:58:14;;;;;;;2.78;1.15;;;35.40;36.70;;;;;;5031489;28;20044;-83
2022/07/20 12:00:41;;;;;;;4.68;1.52;;;35.10;37.50;;;;;;5031903;28;20017;-82
2022/07/20 12:03:07;;;;;;;3.83;0.90;;;35.10;38.10;;;;;;5031737;28;20018;-81
2022/07/20 12:05:33;;;;;;;7.32;1.25;;;34.50;37.50;;;;;;5031201;28;20020;-83
2022/07/20 12:08:13;;;;;;;5.60;1.20;;;34.00;37.90;;;;;;5031572;28;20029;-81
2022/07/20 12:10:42;;;;;;;6.53;1.42;;;34.50;39.40;;;;;;5023334;28;20033;-82
2022/07/20 12:13:09;;;;;;;1.60;0.93;;;34.60;39.10;;;;;;5031428;28;20087;-81
2022/07/20 12:15:35;;;;;;;3.38;1.08;;;34.30;37.50;;;;;;5030983;28;20405;-81
2022/07/20 12:18:01;;;;;;;3.63;0.90;;;34.80;37.90;;;;;;5031684;28;20025;-82
2022/07/20 12:20:27;;;;;;;4.20;1.45;;;35.70;36.90;;;;;;5031229;28;20344;-81
2022/07/20 12:22:58;;;;;;;3.83;1.20;;;35.20;36.90;;;;;;5037567;28;20038;-80
2022/07/20 12:25:38;;;;;;;4.32;1.10;;;34.70;38.70;;;;;;5031315;28;20021;-80
2022/07/20 12:28:04;;;;;;;4.95;1.25;;;33.50;40.00;;;;;;5025853;28;20070;-81
2022/07/20 12:30:37;;;;;;;4.45;1.83;;;33.90;39.90;;;;;;5031241;28;20018;-83
2022/07/20 12:33:14;;;;;;;5.13;1.20;;;33.50;41.10;;;;;;5031098;28;20111;-82
2022/07/20 12:35:50;;;;;;;3.58;1.15;;;34.40;40.30;;;;;;5031248;28;20013;-81
2022/07/20 12:38:17;;;;;;;2.47;1.20;;;36.50;37.10;;;;;;5031143;28;20045;-82
2022/07/20 12:40:52;;;;;;;6.20;1.40;;;36.40;35.40;;;;;;5031304;28;20013;-81
2022/07/20 12:43:31;;;;;;;3.20;1.10;;;36.00;35.70;;;;;;5031175;28;20017;-82
2022/07/20 12:46:08;;;;;;;4.78;1.40;;;35.70;36.00;;;;;;5030602;28;20164;-82
2022/07/20 12:48:35;;;;;;;3.83;1.30;;;34.50;37.60;;;;;;5030763;28;20536;-81
2022/07/20 12:51:00;;;;;;;3.75;1.25;;;32.90;39.20;;;;;;5031066;28;20123;-82
2022/07/20 12:56:05;;;;;;;3.72;1.50;;;33.90;39.50;;;;;;4957870;28;20048;-75
2022/07/20 12:58:31;;;;;;;4.65;1.75;;;34.40;38.40;;;;;;4952837;29;20118;-75
2022/07/20 13:00:57;;;;;;;3.30;1.20;;;35.40;38.40;;;;;;4952928;29;20102;-75
2022/07/20 13:03:23;;;;;;;4.15;1.25;;;36.30;37.80;;;;;;4953202;29;20019;-76
2022/07/20 13:05:51;;;;;;;4.97;1.50;;;37.20;33.60;;;;;;4952603;29;20409;-76
2022/07/20 13:08:17;;;;;;;3.20;1.48;;;35.80;34.00;;;;;;4951380;29;20024;-75
2022/07/20 13:10:43;;;;;;;4.68;1.33;;;35.80;34.40;;;;;;4952605;29;20106;-75
2022/07/20 13:13:10;;;;;;;3.60;1.60;;;35.40;35.20;;;;;;4951464;29;20051;-75
2022/07/20 13:15:35;;;;;;;4.20;1.40;;;34.80;36.10;;;;;;4952519;29;20019;-74
2022/07/20 13:18:02;;;;;;;3.63;1.15;;;34.80;36.90;;;;;;4952647;29;20027;-74
2022/07/20 13:20:28;;;;;;;5.68;1.50;;;34.10;37.40;;;;;;4951136;29;20023;-75
2022/07/20 13:22:54;;;;;;;3.20;1.45;;;34.10;38.20;;;;;;4950781;29;20389;-74
2022/07/20 13:25:22;;;;;;;4.97;1.35;;;34.70;37.30;;;;;;4950864;28;20027;-75
2022/07/20 13:27:48;;;;;;;4.38;1.20;;;34.90;37.50;;;;;;4950749;29;20035;-75
2022/07/20 13:30:13;;;;;;;6.32;1.50;;;35.20;37.70;;;;;;4952568;29;20053;-73
2022/07/20 13:32:39;;;;;;;5.35;1.70;;;34.00;37.80;;;;;;4951452;29;20633;-75
2022/07/20 13:35:05;;;;;;;5.28;1.50;;;34.60;38.20;;;;;;4952407;29;20075;-76
2022/07/20 13:37:31;;;;;;;5.32;1.52;;;35.20;37.30;;;;;;4952360;29;20023;-75
2022/07/20 13:39:57;;;;;;;4.53;1.42;;;35.50;37.30;;;;;;4952525;29;20034;-74
2022/07/20 13:42:23;;;;;;;5.13;1.80;;;36.20;35.80;;;;;;4952513;29;20026;-75
2022/07/20 13:44:48;;;;;;;4.03;1.23;;;35.70;36.30;;;;;;4952445;29;20027;-76
2022/07/20 13:47:14;;;;;;;5.18;1.50;;;35.90;34.60;;;;;;4952640;29;20482;-75
2022/07/20 13:49:40;;;;;;;5.18;1.38;;;36.10;35.30;;;;;;4952231;28;20063;-75
2022/07/20 13:52:06;;;;;;;5.10;1.15;;;35.40;35.10;;;;;;4951007;28;20047;-75
2022/07/20 13:54:32;;;;;;;4.18;1.10;;;36.20;35.60;;;;;;4999269;23;20057;-84
2022/07/20 13:56:58;;;;;;;3.30;1.20;;;37.30;34.50;;;;;;5010679;28;20022;-81
2022/07/20 13:59:23;;;;;;;6.00;1.05;;;36.70;35.10;;;;;;5012175;28;20163;-83
2022/07/20 14:01:49;;;;;;;5.18;1.30;;;36.50;34.60;;;;;;5014301;28;20116;-82
2022/07/20 14:04:16;;;;;;;4.13;1.15;;;35.90;35.30;;;;;;5014294;28;20057;-82
2022/07/20 14:06:44;;;;;;;4.75;1.63;;;35.70;35.30;;;;;;5013765;28;20062;-83
2022/07/20 14:09:10;;;;;;;1.55;0.77;;;36.10;34.80;;;;;;5013742;28;20054;-82
2022/07/20 14:11:37;;;;;;;6.50;0.80;;;35.50;35.10;;;;;;5012989;28;20065;-81
2022/07/20 14:14:04;;;;;;;3.90;1.10;;;35.10;36.40;;;;;;5013791;28;20546;-82
2022/07/20 14:16:31;;;;;;;4.40;0.80;;;36.00;36.60;;;;;;5013766;28;20025;-82
2022/07/20 14:18:57;;;;;;;2.17;0.82;;;36.90;33.60;;;;;;5012822;28;20029;-83
2022/07/20 14:21:23;;;;;;;4.35;0.90;;;35.40;35.80;;;;;;5013770;28;20105;-81
2022/07/20 14:23:50;;;;;;;2.13;0.90;;;35.00;35.90;;;;;;5012070;28;20025;-82
2022/07/20 14:26:17;;;;;;;3.47;0.90;;;35.10;35.10;;;;;;5013871;28;20105;-83
2022/07/20 14:28:43;;;;;;;1.88;0.75;;;35.70;36.20;;;;;;5013702;28;20014;-82
2022/07/20 14:31:09;;;;;;;7.40;1.08;;;36.80;35.10;;;;;;5012322;28;20061;-81
2022/07/20 14:33:35;;;;;;;3.42;1.10;;;36.70;34.10;;;;;;5013512;28;20064;-83
2022/07/20 14:36:01;;;;;;;3.40;1.13;;;37.00;33.90;;;;;;5012999;28;20057;-81
2022/07/20 14:38:27;;;;;;;2.45;0.90;;;36.80;34.20;;;;;;5013123;28;20022;-83
2022/07/20 14:40:52;;;;;;;3.38;1.33;;;35.70;33.90;;;;;;5013233;28;20018;-85
2022/07/20 14:43:18;;;;;;;3.28;0.70;;;35.00;34.80;;;;;;5013303;28;20026;-82
2022/07/20 14:45:45;;;;;;;5.57;0.70;;;34.60;36.00;;;;;;5012922;28;20003;-83
2022/07/20 14:48:11;;;;;;;8.38;0.90;;;35.20;36.00;;;;;;5011877;28;20050;-81
2022/07/20 14:50:36;;;;;;;3.97;0.50;;;35.60;35.40;;;;;;5013375;28;20112;-84
2022/07/20 14:53:04;;;;;;;1.13;0.50;;;35.80;34.10;;;;;;5013237;28;20602;-82
2022/07/20 14:55:31;;;;;;;3.47;0.50;;;35.50;34.90;;;;;;5065065;22;20491;-77
2022/07/20 14:57:57;;;;;;;2.20;0.60;;;35.10;34.40;;;;;;5013176;28;20026;-75
2022/07/20 15:00:23;;;;;;;0.95;0.60;;;34.50;33.70;;;;;;5013071;28;20030;-75
2022/07/20 15:02:49;;;;;;;2.15;0.77;;;33.60;34.80;;;;;;5012963;28;20502;-75
2022/07/20 15:05:15;;;;;;;1.30;0.50;;;33.40;36.10;;;;;;5014604;28;20033;-76
2022/07/20 15:07:41;;;;;;;1.75;0.60;;;33.70;37.20;;;;;;5016740;28;20026;-79
2022/07/20 15:10:08;;;;;;;2.38;0.60;;;33.90;36.90;;;;;;5012900;28;20489;-78
2022/07/20 15:12:34;;;;;;;2.92;0.80;;;34.70;35.90;;;;;;5015365;28;20123;-78
2022/07/20 15:15:00;;;;;;;2.17;0.60;;;34.80;35.70;;;;;;5011415;28;20073;-78
2022/07/20 15:17:26;;;;;;;1.85;0.65;;;34.60;35.50;;;;;;5010767;28;20029;-78
2022/07/20 15:19:52;;;;;;;1.40;0.50;;;34.20;35.20;;;;;;5005173;28;20033;-74
2022/07/20 15:22:21;;;;;;;2.45;0.52;;;34.60;36.50;;;;;;5006791;28;20025;-75
2022/07/20 15:24:47;;;;;;;2.97;1.23;;;33.80;35.90;;;;;;5011862;28;20021;-76
2022/07/20 15:27:13;;;;;;;1.35;0.60;;;33.90;35.80;;;;;;5006514;28;20041;-77
2022/07/20 15:29:38;;;;;;;7.07;1.10;;;34.30;36.50;;;;;;5005431;28;20033;-75
2022/07/20 15:32:04;;;;;;;4.25;0.77;;;33.70;36.10;;;;;;5006174;28;20513;-74
2022/07/20 15:34:30;;;;;;;2.97;1.08;;;34.30;36.20;;;;;;5006037;28;20443;-74
2022/07/20 15:36:56;;;;;;;4.60;0.75;;;33.70;36.60;;;;;;5005535;28;20084;-74
2022/07/20 15:39:22;;;;;;;2.70;0.75;;;33.50;38.20;;;;;;5004523;28;20117;-75
2022/07/20 15:41:50;;;;;;;1.65;0.70;;;33.30;39.00;;;;;;5004545;28;20018;-77
2022/07/20 15:44:17;;;;;;;1.77;0.60;;;34.10;37.80;;;;;;5004397;28;20759;-82
2022/07/20 15:46:45;;;;;;;2.90;0.60;;;34.20;38.20;;;;;;5003582;28;20498;-77
2022/07/20 15:49:14;;;;;;;3.13;0.77;;;33.40;36.60;;;;;;5004565;28;20038;-78
2022/07/20 15:51:40;;;;;;;3.75;0.73;;;33.10;38.10;;;;;;5007182;28;20474;-76
2022/07/20 15:54:06;;;;;;;3.72;0.90;;;33.10;38.10;;;;;;5003706;28;20072;-75
2022/07/20 15:59:18;;;;;;;0.60;0.50;;;31.60;39.50;;;;;;5004755;28;20049;-77
2022/07/20 16:01:44;;;;;;;2.13;0.80;;;30.80;41.00;;;;;;5002936;28;20026;-79
2022/07/20 16:04:10;;;;;;;2.38;0.70;;;30.10;42.10;;;;;;5004852;28;20081;-77
2022/07/20 16:06:36;;;;;;;4.03;1.00;;;29.60;43.60;;;;;;5003745;28;20378;-79
2022/07/20 16:09:02;;;;;;;2.25;0.80;;;29.20;45.40;;;;;;5003903;28;20404;-78
2022/07/20 16:11:28;;;;;;;2.13;0.63;;;28.60;47.00;;;;;;5003617;28;20052;-77